createdAt,value
2022-11-14T00:03:30.852Z,22.10
2022-11-14T00:08:55.662Z,22.30
2022-11-14T00:14:17.818Z,22.40
2022-11-14T00:19:40.172Z,22.50
2022-11-14T00:25:02.730Z,22.50
2022-11-14T00:30:25.893Z,22.60
2022-11-14T00:35:53.870Z,22.60
2022-11-14T00:41:16.020Z,22.70
2022-11-14T00:46:40.416Z,22.70
2022-11-14T00:52:02.561Z,22.60
2022-11-14T00:57:25.216Z,22.50
2022-11-14T01:02:47.569Z,22.40
2022-11-14T01:08:10.325Z,22.30
2022-11-14T01:13:33.090Z,22.20
2022-11-14T01:18:55.536Z,22.20
2022-11-14T01:24:17.886Z,22.00
2022-11-14T01:29:40.243Z,22.00
2022-11-14T01:35:02.384Z,21.90
2022-11-14T01:40:24.937Z,21.80
2022-11-14T01:45:55.577Z,21.70
2022-11-14T01:51:33.388Z,21.70
2022-11-14T01:56:59.446Z,21.60
2022-11-14T02:02:25.651Z,21.60
2022-11-14T02:07:48.052Z,21.50
2022-11-14T02:13:10.863Z,21.50
2022-11-14T02:18:33.021Z,21.50
2022-11-14T02:23:55.462Z,21.40
2022-11-14T02:29:17.919Z,21.40
2022-11-14T02:34:42.720Z,21.40
2022-11-14T02:40:06.137Z,21.30
2022-11-14T02:45:28.567Z,21.30
2022-11-14T02:50:51.101Z,21.20
2022-11-14T02:56:13.700Z,21.20
2022-11-14T03:01:36.199Z,21.10
2022-11-14T03:06:58.932Z,21.10
2022-11-14T03:12:34.212Z,21.10
2022-11-14T03:18:00.044Z,21.00
2022-11-14T03:23:22.088Z,21.00
2022-11-14T03:28:44.825Z,21.00
2022-11-14T03:34:07.200Z,20.90
2022-11-14T03:39:29.548Z,20.90
2022-11-14T03:44:51.804Z,20.80
2022-11-14T03:50:14.151Z,20.90
2022-11-14T03:55:36.207Z,21.10
2022-11-14T04:00:59.104Z,21.50
2022-11-14T04:06:21.716Z,21.80
2022-11-14T04:11:43.941Z,22.00
2022-11-14T04:17:06.613Z,22.20
2022-11-14T04:22:28.866Z,22.30
2022-11-14T04:27:51.213Z,22.30
2022-11-14T04:33:13.564Z,22.30
2022-11-14T04:38:36.115Z,22.40
2022-11-14T04:43:58.569Z,22.50
2022-11-14T04:49:21.028Z,22.50
2022-11-14T04:54:43.580Z,22.50
2022-11-14T05:00:06.846Z,22.60
2022-11-14T05:05:29.420Z,22.70
2022-11-14T05:10:51.547Z,22.70
2022-11-14T05:16:14.110Z,22.80
2022-11-14T05:21:36.657Z,22.80
2022-11-14T05:26:59.520Z,22.80
2022-11-14T05:32:22.484Z,22.60
2022-11-14T05:37:44.878Z,22.50
2022-11-14T05:43:07.525Z,22.40
2022-11-14T05:48:31.484Z,22.30
2022-11-14T05:53:55.159Z,22.20
2022-11-14T05:59:20.067Z,22.10
2022-11-14T06:04:46.521Z,22.00
2022-11-14T06:10:09.271Z,21.90
2022-11-14T06:15:40.934Z,21.80
2022-11-14T06:21:11.988Z,21.80
2022-11-14T06:26:34.924Z,21.70
2022-11-14T06:31:59.166Z,21.60
2022-11-14T06:37:31.372Z,21.60
2022-11-14T06:43:10.838Z,21.60
2022-11-14T06:48:34.636Z,21.60
2022-11-14T06:53:58.014Z,21.50
2022-11-14T06:59:21.592Z,21.50
2022-11-14T07:04:43.976Z,21.40
2022-11-14T07:10:07.468Z,21.30
2022-11-14T07:15:29.764Z,21.30
2022-11-14T07:20:58.666Z,21.30
2022-11-14T07:26:21.325Z,21.30
2022-11-14T07:31:43.672Z,21.30
2022-11-14T07:37:06.227Z,21.30
2022-11-14T07:42:31.441Z,21.30
2022-11-14T07:47:58.502Z,21.20
2022-11-14T07:53:22.399Z,21.10
2022-11-14T07:58:44.837Z,21.10
2022-11-14T08:04:07.533Z,21.20
2022-11-14T08:09:30.187Z,21.10
2022-11-14T08:14:52.951Z,21.10
2022-11-14T08:20:16.920Z,21.00
2022-11-14T08:25:40.372Z,20.90
2022-11-14T08:31:04.519Z,20.90
2022-11-14T08:36:26.815Z,20.90
2022-11-14T08:41:49.472Z,21.10
2022-11-14T08:47:14.483Z,21.30
2022-11-14T08:52:37.037Z,21.50
2022-11-14T08:57:59.592Z,21.70
2022-11-14T09:03:22.087Z,21.90
2022-11-14T09:08:44.599Z,21.90
2022-11-14T09:14:07.570Z,22.00
2022-11-14T09:19:30.425Z,22.10
2022-11-14T09:24:53.184Z,22.20
2022-11-14T09:30:15.944Z,22.30
2022-11-14T09:35:38.404Z,22.30
2022-11-14T09:41:03.933Z,22.40
2022-11-14T09:46:34.117Z,22.40
2022-11-14T09:52:10.517Z,22.50
2022-11-14T09:57:35.101Z,22.60
2022-11-14T10:03:13.348Z,22.60
2022-11-14T10:08:55.686Z,22.60
2022-11-14T10:14:32.248Z,22.70
2022-11-14T10:20:17.118Z,22.70
2022-11-14T10:25:49.771Z,22.70
2022-11-14T10:31:37.285Z,22.60
2022-11-14T10:37:02.608Z,22.60
2022-11-14T10:42:36.928Z,22.50
2022-11-14T10:48:03.778Z,22.40
2022-11-14T10:54:12.794Z,22.40
2022-11-14T10:59:35.228Z,22.30
2022-11-14T11:05:14.891Z,22.20
2022-11-14T11:11:02.416Z,22.20
2022-11-14T11:16:31.931Z,22.00
2022-11-14T11:21:54.586Z,22.10
2022-11-14T11:27:31.538Z,22.20
2022-11-14T11:32:54.125Z,22.30
2022-11-14T11:38:20.465Z,22.40
2022-11-14T11:43:59.979Z,22.40
2022-11-14T11:49:36.091Z,22.40
2022-11-14T11:55:21.447Z,22.40
2022-11-14T12:00:44.105Z,22.40
2022-11-14T12:06:25.550Z,22.40
2022-11-14T12:12:01.994Z,22.30
2022-11-14T12:17:49.595Z,22.40
2022-11-14T12:23:43.765Z,22.40
2022-11-14T12:29:56.869Z,22.40
2022-11-14T12:35:30.589Z,22.40
2022-11-14T12:40:58.085Z,22.40
2022-11-14T12:46:21.012Z,22.40
2022-11-14T12:51:46.271Z,22.40
2022-11-14T12:57:33.237Z,22.40
2022-11-14T13:03:21.683Z,22.40
2022-11-14T13:08:56.534Z,22.40
2022-11-14T13:14:39.745Z,22.40
2022-11-14T13:20:50.804Z,22.30
2022-11-14T13:26:14.088Z,22.30
2022-11-14T13:31:38.173Z,22.20
2022-11-14T13:37:23.751Z,22.20
2022-11-14T13:43:49.368Z,22.10
2022-11-14T13:49:53.029Z,22.10
2022-11-14T13:55:35.061Z,22.00
2022-11-14T14:01:23.438Z,21.90
2022-11-14T14:07:27.327Z,21.80
2022-11-14T14:13:21.423Z,21.80
2022-11-14T14:19:26.173Z,21.70
2022-11-14T14:25:18.223Z,21.70
2022-11-14T14:30:40.642Z,21.70
2022-11-14T14:36:02.995Z,21.60
2022-11-14T14:41:31.032Z,21.50
2022-11-14T14:46:54.957Z,21.50
2022-11-14T14:52:30.758Z,21.40
2022-11-14T14:57:53.781Z,21.40
2022-11-14T15:03:16.539Z,21.40
2022-11-14T15:08:40.837Z,21.40
2022-11-14T15:14:07.072Z,21.40
2022-11-14T15:19:39.725Z,21.30
2022-11-14T15:25:23.603Z,21.30
2022-11-14T15:31:01.607Z,21.20
2022-11-14T15:36:26.725Z,21.20
2022-11-14T15:42:14.172Z,21.20
2022-11-14T15:47:43.264Z,21.20
2022-11-14T15:53:25.857Z,21.10
2022-11-14T15:58:51.745Z,21.10
2022-11-14T16:04:22.304Z,21.10
2022-11-14T16:10:04.498Z,21.10
2022-11-14T16:15:41.926Z,21.10
2022-11-14T16:21:37.274Z,21.00
2022-11-14T16:27:10.996Z,21.00
2022-11-14T16:33:05.678Z,21.00
2022-11-14T16:38:38.087Z,20.90
2022-11-14T16:44:31.280Z,20.90
2022-11-14T16:50:18.270Z,21.00
2022-11-14T16:55:49.412Z,20.90
2022-11-14T17:01:38.638Z,20.90
2022-11-14T17:07:05.917Z,20.90
2022-11-14T17:12:35.544Z,21.00
2022-11-14T17:17:57.810Z,21.00
2022-11-14T17:23:44.945Z,21.00
2022-11-14T17:29:15.966Z,20.90
2022-11-14T17:35:03.703Z,20.90
2022-11-14T17:40:35.515Z,21.10
2022-11-14T17:46:25.037Z,21.50
2022-11-14T17:51:55.139Z,22.10
2022-11-14T17:57:28.397Z,22.30
2022-11-14T18:02:58.752Z,22.40
2022-11-14T18:08:46.159Z,22.50
2022-11-14T18:14:28.536Z,22.50
2022-11-14T18:20:02.145Z,22.50
2022-11-14T18:25:33.318Z,22.70
2022-11-14T18:30:57.729Z,22.70
2022-11-14T18:36:24.061Z,22.60
2022-11-14T18:41:47.346Z,22.50
2022-11-14T18:47:09.441Z,22.30
2022-11-14T18:52:32.705Z,22.30
2022-11-14T18:57:58.865Z,22.20
2022-11-14T19:03:21.531Z,22.10
2022-11-14T19:08:58.491Z,22.10
2022-11-14T19:14:35.019Z,22.00
2022-11-14T19:20:16.642Z,21.90
2022-11-14T19:26:12.853Z,21.90
2022-11-14T19:32:02.295Z,21.80
2022-11-14T19:37:38.192Z,21.80
2022-11-14T19:43:12.362Z,21.80
2022-11-14T19:48:54.553Z,21.80
2022-11-14T19:54:22.470Z,21.80
2022-11-14T19:59:56.466Z,21.70
2022-11-14T20:05:36.388Z,21.70
2022-11-14T20:11:39.420Z,21.70
2022-11-14T20:17:27.393Z,21.60
2022-11-14T20:23:05.111Z,21.60
2022-11-14T20:28:35.710Z,21.50
2022-11-14T20:34:07.602Z,21.40
2022-11-14T20:39:32.921Z,21.40
2022-11-14T20:45:09.823Z,21.30
2022-11-14T20:50:34.644Z,21.30
2022-11-14T20:56:03.305Z,21.30
2022-11-14T21:01:25.680Z,21.30
2022-11-14T21:06:51.640Z,21.30
2022-11-14T21:12:23.142Z,21.20
2022-11-14T21:18:13.456Z,21.20
2022-11-14T21:23:46.107Z,21.20
2022-11-14T21:29:12.929Z,21.20
2022-11-14T21:34:39.390Z,21.10
2022-11-14T21:40:02.257Z,21.10
2022-11-14T21:45:26.559Z,21.10
2022-11-14T21:50:49.807Z,21.00
2022-11-14T21:56:31.987Z,21.00
2022-11-14T22:02:16.384Z,21.00
2022-11-14T22:11:18.228Z,20.90
2022-11-14T22:22:25.035Z,20.90
2022-11-14T22:27:47.318Z,20.90
2022-11-14T22:33:10.581Z,20.90
2022-11-14T22:38:47.356Z,20.90
2022-11-14T22:44:11.117Z,20.90
2022-11-14T22:49:34.114Z,20.90
2022-11-14T22:54:59.117Z,20.90
2022-11-14T23:00:29.015Z,20.90
2022-11-14T23:05:52.286Z,20.90
2022-11-14T23:11:19.166Z,20.90
2022-11-14T23:16:41.487Z,20.80
2022-11-14T23:22:04.249Z,20.80
2022-11-14T23:27:26.493Z,20.70
2022-11-14T23:32:48.946Z,20.80
2022-11-14T23:38:11.295Z,20.70
2022-11-14T23:43:34.442Z,20.70
2022-11-14T23:48:56.716Z,20.70
2022-11-14T23:54:19.265Z,21.10
2022-11-14T23:59:41.924Z,21.40
